Time,TemperatureF,DewpointF,PressureIn,WindDirection,WindDirectionDegrees,WindSpeedMPH,WindSpeedGustMPH,Humidity,HourlyPrecipIn,Conditions,Clouds,dailyrainin,SoftwareType,DateUTC
2013-01-11 00:00:00,43.3,42.0,30.07,South,177,9.9,10.5,96,0.12,,,0.00,TxWx,2013-01-11 06:00:00,
2013-01-11 00:05:00,43.5,43.0,30.07,SE,138,7.5,7.5,96,0.12,,,0.02,TxWx,2013-01-11 06:05:00,
2013-01-11 00:10:00,43.7,43.0,30.06,ESE,114,12.9,14.1,96,0.18,,,0.03,TxWx,2013-01-11 06:10:00,
2013-01-11 00:15:00,43.8,43.0,30.06,SE,128,10.8,11.4,96,0.18,,,0.03,TxWx,2013-01-11 06:15:00,
2013-01-11 00:20:00,44.0,43.0,30.06,SE,131,6.0,7.8,96,0.00,,,0.03,TxWx,2013-01-11 06:20:00,
2013-01-11 00:26:00,44.2,43.0,30.06,SE,126,12.3,12.3,96,0.00,,,0.03,TxWx,2013-01-11 06:26:00,
2013-01-11 00:31:00,44.1,43.0,30.05,SE,138,4.5,5.4,96,0.00,,,0.03,TxWx,2013-01-11 06:31:00,
2013-01-11 00:36:00,44.0,43.0,30.05,SE,125,6.9,6.9,96,0.00,,,0.03,TxWx,2013-01-11 06:36:00,
2013-01-11 00:41:00,44.0,43.0,30.04,SE,130,11.1,11.1,96,0.00,,,0.03,TxWx,2013-01-11 06:41:00,
2013-01-11 00:46:00,43.9,43.0,30.04,SE,136,9.9,10.2,96,0.00,,,0.03,TxWx,2013-01-11 06:46:00,
2013-01-11 00:51:00,44.0,43.0,30.04,ESE,120,10.8,12.0,96,0.00,,,0.04,TxWx,2013-01-11 06:51:00,
2013-01-11 00:56:00,44.2,43.0,30.03,SE,142,6.6,10.5,96,0.00,,,0.04,TxWx,2013-01-11 06:56:00,
2013-01-11 01:02:00,44.3,43.0,30.02,East,84,7.5,9.3,96,0.06,,,0.04,TxWx,2013-01-11 07:02:00,
2013-01-11 01:07:00,44.3,43.0,30.02,SE,129,8.4,8.4,96,0.06,,,0.04,TxWx,2013-01-11 07:07:00,
2013-01-11 01:12:00,44.5,43.0,30.01,ESE,116,11.4,11.4,96,0.00,,,0.04,TxWx,2013-01-11 07:12:00,
2013-01-11 01:17:00,44.4,43.0,30.01,SE,126,6.0,6.3,96,0.00,,,0.07,TxWx,2013-01-11 07:17:00,
2013-01-11 01:22:00,44.6,44.0,30.01,ESE,120,9.9,9.9,96,0.30,,,0.09,TxWx,2013-01-11 07:22:00,
2013-01-11 01:28:00,44.7,44.0,30.00,ESE,117,6.6,8.4,96,0.30,,,0.10,TxWx,2013-01-11 07:28:00,
2013-01-11 01:33:00,44.8,44.0,30.00,ESE,115,9.9,10.2,96,0.06,,,0.10,TxWx,2013-01-11 07:33:00,
2013-01-11 01:38:00,44.9,44.0,30.00,SE,133,9.0,9.3,96,0.06,,,0.10,TxWx,2013-01-11 07:38:00,
2013-01-11 01:43:00,45.0,44.0,30.00,SE,139,6.9,6.9,96,0.00,,,0.10,TxWx,2013-01-11 07:43:00,
2013-01-11 01:48:00,45.3,44.0,30.00,ESE,110,11.1,11.7,96,0.00,,,0.10,TxWx,2013-01-11 07:48:00,
2013-01-11 01:54:00,45.4,44.0,29.99,SE,132,7.8,8.1,96,0.00,,,0.10,TxWx,2013-01-11 07:54:00,
2013-01-11 01:59:00,45.5,45.0,29.99,ESE,103,7.8,7.8,96,0.00,,,0.10,TxWx,2013-01-11 07:59:00,
2013-01-11 02:04:00,45.5,45.0,29.99,East,101,4.5,5.4,96,0.00,,,0.13,TxWx,2013-01-11 08:04:00,
2013-01-11 02:09:00,45.8,45.0,29.98,SSE,155,7.2,8.4,96,0.00,,,0.14,TxWx,2013-01-11 08:09:00,
2013-01-11 02:14:00,45.9,45.0,29.98,ESE,112,8.4,8.4,96,0.30,,,0.16,TxWx,2013-01-11 08:14:00,
2013-01-11 02:20:00,46.0,45.0,29.98,SE,142,5.4,6.0,96,0.12,,,0.17,TxWx,2013-01-11 08:20:00,
2013-01-11 02:25:00,46.3,45.0,29.98,SE,134,5.4,6.0,96,0.12,,,0.18,TxWx,2013-01-11 08:25:00,
2013-01-11 02:30:00,46.8,46.0,29.97,East,99,7.8,7.8,97,0.06,,,0.18,TxWx,2013-01-11 08:30:00,
2013-01-11 02:36:00,47.7,47.0,29.97,ESE,114,6.6,6.9,97,0.06,,,0.19,TxWx,2013-01-11 08:36:00,
2013-01-11 02:41:00,48.6,48.0,29.97,SE,142,11.7,12.0,97,0.30,,,0.24,TxWx,2013-01-11 08:41:00,
2013-01-11 02:46:00,48.5,47.0,29.96,ESE,117,15.0,15.0,96,0.30,,,0.25,TxWx,2013-01-11 08:46:00,
2013-01-11 02:51:00,48.3,47.0,29.96,East,101,5.1,7.8,96,0.12,,,0.25,TxWx,2013-01-11 08:51:00,
2013-01-11 02:56:00,48.3,47.0,29.96,SSE,149,6.6,6.9,96,0.12,,,0.25,TxWx,2013-01-11 08:56:00,
2013-01-11 03:01:00,48.5,47.0,29.95,ESE,103,7.5,8.4,96,0.06,,,0.26,TxWx,2013-01-11 09:01:00,
2013-01-11 03:06:00,48.7,48.0,29.95,SE,130,9.0,11.4,96,0.06,,,0.26,TxWx,2013-01-11 09:06:00,
2013-01-11 03:11:00,48.9,48.0,29.95,ESE,118,10.5,10.5,96,0.00,,,0.26,TxWx,2013-01-11 09:11:00,
2013-01-11 03:17:00,49.1,48.0,29.94,SE,131,9.3,11.7,96,0.00,,,0.26,TxWx,2013-01-11 09:17:00,
2013-01-11 03:22:00,49.9,49.0,29.94,SE,126,12.6,13.8,97,0.00,,,0.26,TxWx,2013-01-11 09:22:00,
2013-01-11 03:27:00,50.9,50.0,29.94,SE,125,16.5,16.5,97,0.00,,,0.27,TxWx,2013-01-11 09:27:00,
2013-01-11 03:32:00,51.1,50.0,29.93,SE,139,17.7,17.7,96,0.06,,,0.28,TxWx,2013-01-11 09:32:00,
2013-01-11 03:37:00,51.4,50.0,29.93,SE,143,16.5,18.3,96,0.06,,,0.28,TxWx,2013-01-11 09:37:00,
2013-01-11 03:43:00,51.3,50.0,29.92,SE,133,12.6,15.3,96,0.06,,,0.29,TxWx,2013-01-11 09:43:00,
2013-01-11 03:48:00,51.3,50.0,29.92,SSE,149,15.3,17.1,96,0.06,,,0.29,TxWx,2013-01-11 09:48:00,
2013-01-11 03:53:00,51.2,50.0,29.92,SE,131,16.5,16.5,96,0.12,,,0.30,TxWx,2013-01-11 09:53:00,
2013-01-11 03:58:00,51.2,50.0,29.92,SE,138,14.1,14.7,96,0.12,,,0.31,TxWx,2013-01-11 09:58:00,
2013-01-11 04:03:00,51.2,50.0,29.92,SE,136,14.4,15.9,96,0.12,,,0.33,TxWx,2013-01-11 10:03:00,
2013-01-11 04:08:00,51.3,50.0,29.92,SSE,158,12.6,12.6,96,0.12,,,0.34,TxWx,2013-01-11 10:08:00,
2013-01-11 04:14:00,51.5,50.0,29.91,SE,145,13.8,16.5,96,0.12,,,0.35,TxWx,2013-01-11 10:14:00,
2013-01-11 04:19:00,51.7,51.0,29.91,SSE,147,9.3,10.2,96,0.12,,,0.35,TxWx,2013-01-11 10:19:00,
2013-01-11 04:24:00,51.7,51.0,29.90,SE,144,12.6,12.6,96,0.06,,,0.35,TxWx,2013-01-11 10:24:00,
2013-01-11 04:29:00,51.8,51.0,29.89,ESE,122,16.8,16.8,96,0.06,,,0.35,TxWx,2013-01-11 10:29:00,
2013-01-11 04:35:00,52.0,51.0,29.88,SE,143,11.7,11.7,96,0.00,,,0.35,TxWx,2013-01-11 10:35:00,
2013-01-11 04:40:00,52.2,51.0,29.87,SE,138,7.5,8.4,96,0.00,,,0.35,TxWx,2013-01-11 10:40:00,
2013-01-11 04:45:00,51.9,51.0,29.85,ESE,117,6.6,6.9,96,0.00,,,0.35,TxWx,2013-01-11 10:45:00,
2013-01-11 04:50:00,51.9,51.0,29.85,SSE,148,7.2,7.2,96,0.00,,,0.35,TxWx,2013-01-11 10:50:00,
2013-01-11 04:55:00,52.0,51.0,29.86,SSE,147,12.9,12.9,96,0.00,,,0.35,TxWx,2013-01-11 10:55:00,
2013-01-11 05:00:00,52.1,51.0,29.86,SE,139,11.4,12.9,96,0.00,,,0.35,TxWx,2013-01-11 11:00:00,
2013-01-11 05:05:00,52.2,51.0,29.88,SSE,150,10.8,10.8,96,0.00,,,0.35,TxWx,2013-01-11 11:05:00,
2013-01-11 05:10:00,52.3,51.0,29.88,SE,145,19.8,21.3,96,0.00,,,0.35,TxWx,2013-01-11 11:10:00,
2013-01-11 05:16:00,52.4,51.0,29.88,SE,133,12.3,12.6,96,0.00,,,0.35,TxWx,2013-01-11 11:16:00,
2013-01-11 05:21:00,52.3,51.0,29.87,SE,142,15.0,15.0,96,0.00,,,0.35,TxWx,2013-01-11 11:21:00,
2013-01-11 05:26:00,52.3,51.0,29.86,SE,128,13.2,13.5,96,0.00,,,0.35,TxWx,2013-01-11 11:26:00,
2013-01-11 05:31:00,52.4,51.0,29.86,SE,133,14.7,14.7,96,0.00,,,0.35,TxWx,2013-01-11 11:31:00,
2013-01-11 05:36:00,52.3,51.0,29.85,ESE,113,6.6,8.7,96,0.00,,,0.35,TxWx,2013-01-11 11:36:00,
2013-01-11 05:42:00,52.3,51.0,29.85,SE,130,12.6,13.5,96,0.00,,,0.35,TxWx,2013-01-11 11:42:00,
2013-01-11 05:47:00,52.2,51.0,29.85,SE,136,21.3,21.3,95,0.00,,,0.35,TxWx,2013-01-11 11:47:00,
2013-01-11 05:52:00,52.2,51.0,29.87,SSE,159,17.1,17.1,96,0.00,,,0.35,TxWx,2013-01-11 11:52:00,
2013-01-11 05:57:00,52.4,51.0,29.87,SE,129,12.9,14.1,95,0.00,,,0.35,TxWx,2013-01-11 11:57:00,
2013-01-11 06:02:00,52.4,51.0,29.87,SE,131,12.0,12.0,95,0.00,,,0.35,TxWx,2013-01-11 12:02:00,
2013-01-11 06:08:00,52.4,51.0,29.87,SE,127,13.2,13.2,95,0.00,,,0.35,TxWx,2013-01-11 12:08:00,
2013-01-11 06:13:00,52.3,51.0,29.88,SE,129,8.4,9.6,95,0.00,,,0.35,TxWx,2013-01-11 12:13:00,
2013-01-11 06:18:00,52.4,51.0,29.88,SE,130,10.2,10.2,95,0.00,,,0.35,TxWx,2013-01-11 12:18:00,
2013-01-11 06:23:00,52.5,52.0,29.88,SE,134,12.6,12.6,95,0.00,,,0.35,TxWx,2013-01-11 12:23:00,
2013-01-11 06:28:00,52.5,52.0,29.89,SE,128,15.9,15.9,95,0.00,,,0.35,TxWx,2013-01-11 12:28:00,
2013-01-11 06:34:00,52.5,52.0,29.88,SE,134,13.2,13.2,95,0.00,,,0.35,TxWx,2013-01-11 12:34:00,
2013-01-11 06:39:00,52.5,52.0,29.88,SSE,160,12.3,12.6,95,0.00,,,0.35,TxWx,2013-01-11 12:39:00,
2013-01-11 06:44:00,52.5,50.0,29.89,SSE,147,11.1,11.1,95,0.00,,,0.35,TxWx,2013-01-11 12:44:00,
2013-01-11 06:49:00,52.8,51.0,29.88,SE,129,11.1,11.1,95,0.00,,,0.35,TxWx,2013-01-11 12:49:00,
2013-01-11 06:54:00,53.0,51.0,29.88,South,169,15.3,15.3,95,0.00,,,0.35,TxWx,2013-01-11 12:54:00,
2013-01-11 06:59:00,53.4,51.0,29.88,SE,136,17.1,17.4,95,0.00,,,0.35,TxWx,2013-01-11 12:59:00,
2013-01-11 07:05:00,53.5,51.0,29.89,SSE,155,16.5,16.5,95,0.00,,,0.35,TxWx,2013-01-11 13:05:00,
2013-01-11 07:10:00,53.5,52.0,29.88,SE,140,9.6,9.6,95,0.00,,,0.35,TxWx,2013-01-11 13:10:00,
2013-01-11 07:15:00,53.6,52.0,29.89,SE,140,13.5,13.5,94,0.00,,,0.35,TxWx,2013-01-11 13:15:00,
2013-01-11 07:20:00,53.8,52.0,29.89,SSE,154,12.6,12.6,94,0.00,,,0.35,TxWx,2013-01-11 13:20:00,
2013-01-11 07:25:00,54.0,52.0,29.89,SE,136,19.2,19.2,94,0.00,,,0.35,TxWx,2013-01-11 13:25:00,
2013-01-11 07:31:00,54.0,52.0,29.89,SE,132,12.3,12.3,94,0.00,,,0.35,TxWx,2013-01-11 13:31:00,
2013-01-11 07:36:00,54.5,52.0,29.89,SE,142,16.5,20.4,94,0.00,,,0.35,TxWx,2013-01-11 13:36:00,
2013-01-11 07:41:00,54.5,52.0,29.90,SSE,159,18.9,22.5,94,0.00,,,0.35,TxWx,2013-01-11 13:41:00,
2013-01-11 07:46:00,54.3,52.0,29.91,SE,131,10.2,11.4,94,0.00,,,0.35,TxWx,2013-01-11 13:46:00,
2013-01-11 07:51:00,54.4,52.0,29.91,SSE,162,17.1,17.1,93,0.00,,,0.35,TxWx,2013-01-11 13:51:00,
2013-01-11 07:57:00,54.3,52.0,29.92,SSE,163,11.7,12.6,93,0.00,,,0.35,TxWx,2013-01-11 13:57:00,
2013-01-11 08:02:00,54.3,52.0,29.92,SSE,166,13.8,14.7,93,0.00,,,0.35,TxWx,2013-01-11 14:02:00,
2013-01-11 08:07:00,54.2,52.0,29.92,SSE,164,18.6,18.6,92,0.00,,,0.35,TxWx,2013-01-11 14:07:00,
2013-01-11 08:12:00,54.1,52.0,29.92,SSE,160,14.4,14.4,92,0.00,,,0.35,TxWx,2013-01-11 14:12:00,
2013-01-11 08:17:00,54.0,51.0,29.91,SSE,147,7.8,9.3,91,0.00,,,0.35,TxWx,2013-01-11 14:17:00,
2013-01-11 08:22:00,53.9,51.0,29.92,SSE,147,9.3,10.2,91,0.00,,,0.35,TxWx,2013-01-11 14:22:00,
2013-01-11 08:28:00,53.7,51.0,29.92,SSE,165,8.1,11.1,91,0.00,,,0.35,TxWx,2013-01-11 14:28:00,
2013-01-11 08:33:00,53.6,51.0,29.92,SSE,162,13.2,13.2,91,0.00,,,0.35,TxWx,2013-01-11 14:33:00,
2013-01-11 08:38:00,53.3,50.0,29.92,SSE,165,10.2,12.0,91,0.00,,,0.35,TxWx,2013-01-11 14:38:00,
2013-01-11 08:43:00,53.2,50.0,29.93,SSE,162,8.1,10.5,91,0.00,,,0.35,TxWx,2013-01-11 14:43:00,
2013-01-11 08:49:00,53.0,50.0,29.93,SSE,167,13.8,13.8,91,0.00,,,0.35,TxWx,2013-01-11 14:49:00,
2013-01-11 08:54:00,52.9,50.0,29.93,South,172,12.6,14.1,91,0.00,,,0.35,TxWx,2013-01-11 14:54:00,
2013-01-11 08:59:00,52.7,50.0,29.94,SSE,154,15.6,17.1,91,0.00,,,0.35,TxWx,2013-01-11 14:59:00,
2013-01-11 09:04:00,52.6,50.0,29.93,South,187,9.9,13.5,91,0.00,,,0.35,TxWx,2013-01-11 15:04:00,
2013-01-11 09:09:00,52.5,49.0,29.94,SSE,160,12.9,12.9,91,0.00,,,0.35,TxWx,2013-01-11 15:09:00,
2013-01-11 09:14:00,52.3,49.0,29.94,SSW,192,12.0,15.6,91,0.00,,,0.35,TxWx,2013-01-11 15:14:00,
2013-01-11 09:20:00,52.2,49.0,29.94,SSE,156,8.4,10.5,91,0.00,,,0.35,TxWx,2013-01-11 15:20:00,
2013-01-11 09:25:00,52.1,49.0,29.95,SSE,159,9.3,9.3,91,0.00,,,0.35,TxWx,2013-01-11 15:25:00,
2013-01-11 09:30:00,51.8,49.0,29.95,SSE,151,14.4,18.9,91,0.00,,,0.35,TxWx,2013-01-11 15:30:00,
2013-01-11 09:35:00,51.7,49.0,29.95,South,169,7.2,7.5,91,0.00,,,0.35,TxWx,2013-01-11 15:35:00,
2013-01-11 09:40:00,51.5,48.0,29.95,South,179,12.6,15.3,91,0.00,,,0.35,TxWx,2013-01-11 15:40:00,
2013-01-11 09:45:00,51.4,49.0,29.95,South,180,11.4,11.7,92,0.00,,,0.35,TxWx,2013-01-11 15:45:00,
2013-01-11 09:50:00,51.3,49.0,29.96,South,169,10.2,11.7,92,0.00,,,0.35,TxWx,2013-01-11 15:50:00,
2013-01-11 09:56:00,51.3,49.0,29.96,SSE,158,8.1,9.0,92,0.00,,,0.35,TxWx,2013-01-11 15:56:00,
2013-01-11 10:01:00,51.2,49.0,29.96,South,173,10.2,11.4,92,0.00,,,0.35,TxWx,2013-01-11 16:01:00,
2013-01-11 10:06:00,51.1,49.0,29.96,South,191,15.3,16.8,92,0.00,,,0.35,TxWx,2013-01-11 16:06:00,
2013-01-11 10:11:00,51.2,49.0,29.96,South,170,11.7,15.6,92,0.00,,,0.35,TxWx,2013-01-11 16:11:00,
2013-01-11 10:16:00,51.1,49.0,29.96,SSE,163,17.7,17.7,92,0.00,,,0.35,TxWx,2013-01-11 16:16:00,
2013-01-11 10:22:00,51.1,49.0,29.96,South,173,6.3,7.8,92,0.00,,,0.35,TxWx,2013-01-11 16:22:00,
2013-01-11 10:27:00,51.1,49.0,29.96,South,171,18.9,19.8,92,0.00,,,0.35,TxWx,2013-01-11 16:27:00,
2013-01-11 10:32:00,51.0,49.0,29.96,South,174,5.7,6.6,92,0.00,,,0.35,TxWx,2013-01-11 16:32:00,
2013-01-11 10:37:00,50.9,49.0,29.97,South,174,15.6,15.6,92,0.00,,,0.35,TxWx,2013-01-11 16:37:00,
2013-01-11 10:42:00,50.8,49.0,29.97,South,169,10.2,10.5,92,0.00,,,0.35,TxWx,2013-01-11 16:42:00,
2013-01-11 10:47:00,50.9,49.0,29.97,SSE,162,9.9,12.0,92,0.00,,,0.35,TxWx,2013-01-11 16:47:00,
2013-01-11 10:52:00,50.8,49.0,29.96,SSE,163,10.5,14.4,92,0.00,,,0.35,TxWx,2013-01-11 16:52:00,
2013-01-11 10:57:00,50.9,49.0,29.96,SSE,163,9.9,10.5,92,0.00,,,0.35,TxWx,2013-01-11 16:57:00,
2013-01-11 11:03:00,50.9,49.0,29.96,SSE,167,6.9,6.9,92,0.00,,,0.35,TxWx,2013-01-11 17:03:00,
2013-01-11 11:08:00,50.9,48.0,29.96,South,179,7.8,10.2,91,0.00,,,0.35,TxWx,2013-01-11 17:08:00,
2013-01-11 11:13:00,50.7,48.0,29.96,South,180,9.9,10.8,91,0.00,,,0.35,TxWx,2013-01-11 17:13:00,
2013-01-11 11:19:00,50.4,47.0,29.95,South,171,19.2,22.2,91,0.00,,,0.35,TxWx,2013-01-11 17:19:00,
2013-01-11 11:24:00,50.4,47.0,29.95,SSW,197,15.9,15.9,91,0.00,,,0.35,TxWx,2013-01-11 17:24:00,
2013-01-11 11:29:00,50.3,47.0,29.95,South,180,9.0,13.2,91,0.00,,,0.35,TxWx,2013-01-11 17:29:00,
2013-01-11 11:34:00,50.1,47.0,29.95,SSE,161,9.6,10.5,91,0.00,,,0.35,TxWx,2013-01-11 17:34:00,
2013-01-11 11:39:00,50.0,48.0,29.95,SSE,168,6.6,6.6,92,0.00,,,0.35,TxWx,2013-01-11 17:39:00,
2013-01-11 11:45:00,49.8,48.0,29.94,South,169,11.1,13.5,92,0.00,,,0.35,TxWx,2013-01-11 17:45:00,
2013-01-11 11:50:00,49.8,48.0,29.95,South,188,18.9,18.9,92,0.00,,,0.35,TxWx,2013-01-11 17:50:00,
2013-01-11 11:55:00,49.7,48.0,29.94,South,190,9.0,9.6,92,0.00,,,0.35,TxWx,2013-01-11 17:55:00,
2013-01-11 12:00:00,49.5,48.0,29.94,SSE,156,17.1,17.1,92,0.00,,,0.35,TxWx,2013-01-11 18:00:00,
2013-01-11 12:06:00,49.5,47.0,29.94,SSE,161,8.1,9.6,93,0.00,,,0.35,TxWx,2013-01-11 18:06:00,
2013-01-11 12:11:00,49.4,47.0,29.94,SSE,156,6.9,7.5,93,0.00,,,0.35,TxWx,2013-01-11 18:11:00,
2013-01-11 12:16:00,49.2,47.0,29.94,SSE,164,12.0,13.2,93,0.00,,,0.35,TxWx,2013-01-11 18:16:00,
2013-01-11 12:21:00,49.2,47.0,29.94,South,189,9.9,11.7,93,0.00,,,0.35,TxWx,2013-01-11 18:21:00,
2013-01-11 12:27:00,49.2,47.0,29.94,SSE,153,7.5,7.5,93,0.00,,,0.35,TxWx,2013-01-11 18:27:00,
2013-01-11 12:32:00,49.2,47.0,29.94,SSE,158,12.9,12.9,93,0.00,,,0.35,TxWx,2013-01-11 18:32:00,
2013-01-11 12:37:00,49.3,47.0,29.95,SSE,166,10.8,11.4,93,0.00,,,0.35,TxWx,2013-01-11 18:37:00,
2013-01-11 12:42:00,49.2,47.0,29.95,South,176,14.7,14.7,93,0.00,,,0.35,TxWx,2013-01-11 18:42:00,
2013-01-11 12:47:00,49.3,47.0,29.95,South,182,13.2,14.4,93,0.00,,,0.35,TxWx,2013-01-11 18:47:00,
2013-01-11 12:52:00,49.3,47.0,29.95,South,170,13.2,15.0,93,0.00,,,0.35,TxWx,2013-01-11 18:52:00,
2013-01-11 12:57:00,49.5,48.0,29.95,South,189,11.7,11.7,93,0.00,,,0.35,TxWx,2013-01-11 18:57:00,
2013-01-11 13:03:00,49.7,48.0,29.96,South,172,11.7,12.3,92,0.00,,,0.35,TxWx,2013-01-11 19:03:00,
2013-01-11 13:08:00,49.7,48.0,29.96,South,186,6.9,7.8,92,0.00,,,0.35,TxWx,2013-01-11 19:08:00,
2013-01-11 13:13:00,49.7,47.0,29.95,South,183,10.8,12.6,91,0.00,,,0.35,TxWx,2013-01-11 19:13:00,
2013-01-11 13:18:00,49.7,47.0,29.95,SSW,205,8.4,8.4,91,0.00,,,0.35,TxWx,2013-01-11 19:18:00,
2013-01-11 13:23:00,49.7,47.0,29.95,South,188,13.5,14.4,91,0.00,,,0.35,TxWx,2013-01-11 19:23:00,
2013-01-11 13:29:00,49.6,47.0,29.94,South,178,9.3,10.2,91,0.00,,,0.35,TxWx,2013-01-11 19:29:00,
2013-01-11 13:34:00,49.6,47.0,29.95,South,189,12.6,12.6,91,0.00,,,0.35,TxWx,2013-01-11 19:34:00,
2013-01-11 13:39:00,49.7,47.0,29.95,SSE,163,6.6,8.1,91,0.00,,,0.35,TxWx,2013-01-11 19:39:00,
2013-01-11 13:44:00,49.8,47.0,29.95,SSE,166,13.8,14.7,91,0.00,,,0.35,TxWx,2013-01-11 19:44:00,
2013-01-11 13:49:00,49.9,47.0,29.95,SSE,164,8.4,9.0,90,0.00,,,0.35,TxWx,2013-01-11 19:49:00,
2013-01-11 13:54:00,50.1,47.0,29.95,South,171,11.1,11.1,90,0.00,,,0.35,TxWx,2013-01-11 19:54:00,
2013-01-11 14:00:00,50.3,47.0,29.96,South,190,8.7,8.7,90,0.00,,,0.35,TxWx,2013-01-11 20:00:00,
2013-01-11 14:05:00,50.3,47.0,29.96,South,182,13.8,14.1,90,0.00,,,0.35,TxWx,2013-01-11 20:05:00,
2013-01-11 14:10:00,50.4,47.0,29.96,SSE,165,3.0,3.6,90,0.00,,,0.35,TxWx,2013-01-11 20:10:00,
2013-01-11 14:15:00,50.5,48.0,29.97,South,172,7.5,10.5,89,0.00,,,0.35,TxWx,2013-01-11 20:15:00,
2013-01-11 14:21:00,50.6,48.0,29.96,South,175,11.4,13.8,89,0.00,,,0.35,TxWx,2013-01-11 20:21:00,
2013-01-11 14:26:00,50.7,48.0,29.96,South,181,10.8,10.8,89,0.00,,,0.35,TxWx,2013-01-11 20:26:00,
2013-01-11 14:31:00,50.9,48.0,29.96,SSW,202,9.0,9.6,89,0.00,,,0.35,TxWx,2013-01-11 20:31:00,
2013-01-11 14:37:00,51.2,48.0,29.97,South,179,7.8,8.7,89,0.00,,,0.35,TxWx,2013-01-11 20:37:00,
2013-01-11 14:42:00,51.5,48.0,29.96,SSE,156,5.7,6.0,88,0.00,,,0.35,TxWx,2013-01-11 20:42:00,
2013-01-11 14:47:00,51.6,49.0,29.96,South,173,8.7,8.7,88,0.00,,,0.35,TxWx,2013-01-11 20:47:00,
2013-01-11 14:52:00,51.9,48.0,29.96,South,179,10.5,11.1,88,0.00,,,0.35,TxWx,2013-01-11 20:52:00,
2013-01-11 14:57:00,52.2,48.0,29.95,SSE,165,10.5,10.8,87,0.00,,,0.35,TxWx,2013-01-11 20:57:00,
2013-01-11 15:02:00,52.4,48.0,29.96,South,184,10.5,10.5,86,0.00,,,0.35,TxWx,2013-01-11 21:02:00,
2013-01-11 15:08:00,52.6,49.0,29.96,South,184,5.1,5.1,86,0.00,,,0.35,TxWx,2013-01-11 21:08:00,
2013-01-11 15:13:00,52.7,49.0,29.95,South,182,11.7,11.7,85,0.00,,,0.35,TxWx,2013-01-11 21:13:00,
2013-01-11 15:18:00,52.8,48.0,29.95,South,189,18.6,18.6,85,0.00,,,0.35,TxWx,2013-01-11 21:18:00,
2013-01-11 15:23:00,52.8,48.0,29.95,South,174,10.2,10.8,85,0.00,,,0.35,TxWx,2013-01-11 21:23:00,
2013-01-11 15:29:00,52.7,48.0,29.94,South,188,10.8,10.8,85,0.00,,,0.35,TxWx,2013-01-11 21:29:00,
2013-01-11 15:34:00,52.5,48.0,29.94,South,170,9.3,9.9,85,0.00,,,0.35,TxWx,2013-01-11 21:34:00,
2013-01-11 15:39:00,52.5,47.0,29.95,South,181,8.4,8.4,85,0.00,,,0.35,TxWx,2013-01-11 21:39:00,
2013-01-11 15:44:00,52.5,48.0,29.95,South,190,10.8,10.8,85,0.00,,,0.35,TxWx,2013-01-11 21:44:00,
2013-01-11 15:49:00,52.5,48.0,29.95,South,171,9.3,11.7,85,0.00,,,0.35,TxWx,2013-01-11 21:49:00,
2013-01-11 15:55:00,52.6,48.0,29.95,SSW,196,5.7,6.6,84,0.00,,,0.35,TxWx,2013-01-11 21:55:00,
2013-01-11 16:00:00,52.5,48.0,29.95,South,178,6.0,6.0,84,0.00,,,0.35,TxWx,2013-01-11 22:00:00,
2013-01-11 16:05:00,52.5,47.0,29.94,SSW,192,7.5,7.5,84,0.00,,,0.35,TxWx,2013-01-11 22:05:00,
2013-01-11 16:10:00,52.5,47.0,29.94,South,179,9.3,9.3,85,0.00,,,0.35,TxWx,2013-01-11 22:10:00,
2013-01-11 16:15:00,52.5,48.0,29.94,South,184,12.9,12.9,85,0.00,,,0.35,TxWx,2013-01-11 22:15:00,
2013-01-11 16:20:00,52.4,47.0,29.93,SSE,165,5.7,5.7,85,0.00,,,0.35,TxWx,2013-01-11 22:20:00,
2013-01-11 16:25:00,52.5,49.0,29.94,South,169,9.9,11.7,85,0.00,,,0.35,TxWx,2013-01-11 22:25:00,
2013-01-11 16:30:00,52.4,47.0,29.94,SSE,166,14.1,14.1,85,0.00,,,0.35,TxWx,2013-01-11 22:30:00,
2013-01-11 16:35:00,52.5,48.0,29.93,SE,146,7.5,9.0,85,0.00,,,0.35,TxWx,2013-01-11 22:35:00,
2013-01-11 16:41:00,52.4,47.0,29.94,South,178,4.8,5.1,85,0.00,,,0.35,TxWx,2013-01-11 22:41:00,
2013-01-11 16:46:00,52.9,49.0,29.95,South,178,12.9,13.5,85,0.00,,,0.35,TxWx,2013-01-11 22:46:00,
2013-01-11 16:51:00,52.9,49.0,29.94,South,187,11.1,11.1,85,0.00,,,0.35,TxWx,2013-01-11 22:51:00,
2013-01-11 16:56:00,52.8,48.0,29.94,South,179,12.3,12.6,85,0.00,,,0.35,TxWx,2013-01-11 22:56:00,
2013-01-11 17:01:00,52.9,49.0,29.94,SSE,155,9.0,9.0,85,0.00,,,0.35,TxWx,2013-01-11 23:01:00,
2013-01-11 17:07:00,52.8,48.0,29.94,SSW,198,12.3,12.6,85,0.00,,,0.35,TxWx,2013-01-11 23:07:00,
2013-01-11 17:12:00,52.8,49.0,29.94,SSE,165,8.7,8.7,85,0.00,,,0.35,TxWx,2013-01-11 23:12:00,
2013-01-11 17:17:00,52.7,49.0,29.95,SSE,164,11.1,11.1,85,0.00,,,0.35,TxWx,2013-01-11 23:17:00,
2013-01-11 17:22:00,52.7,49.0,29.95,South,179,8.4,9.6,86,0.00,,,0.35,TxWx,2013-01-11 23:22:00,
2013-01-11 17:27:00,52.6,49.0,29.94,SSE,161,15.0,16.5,86,0.00,,,0.35,TxWx,2013-01-11 23:27:00,
2013-01-11 17:32:00,52.6,49.0,29.94,SSE,158,12.6,12.6,86,0.00,,,0.35,TxWx,2013-01-11 23:32:00,
2013-01-11 17:37:00,52.5,49.0,29.94,SSE,157,9.6,9.6,86,0.00,,,0.35,TxWx,2013-01-11 23:37:00,
2013-01-11 17:42:00,52.2,48.0,29.94,SSE,157,11.7,13.5,86,0.00,,,0.35,TxWx,2013-01-11 23:42:00,
2013-01-11 17:48:00,52.0,48.0,29.93,South,169,12.0,12.9,86,0.00,,,0.35,TxWx,2013-01-11 23:48:00,
2013-01-11 17:53:00,52.0,48.0,29.93,SSE,168,16.2,17.4,86,0.00,,,0.35,TxWx,2013-01-11 23:53:00,
2013-01-11 17:58:00,51.9,48.0,29.93,SSE,168,12.9,14.1,87,0.00,,,0.35,TxWx,2013-01-11 23:58:00,
2013-01-11 18:03:00,52.0,48.0,29.93,SSE,151,10.2,11.7,87,0.00,,,0.35,TxWx,2013-01-12 00:03:00,
2013-01-11 18:08:00,51.8,48.0,29.93,South,171,11.1,12.6,87,0.00,,,0.35,TxWx,2013-01-12 00:08:00,
2013-01-11 18:14:00,51.9,48.0,29.93,SSE,152,13.2,13.5,87,0.00,,,0.35,TxWx,2013-01-12 00:14:00,
2013-01-11 18:19:00,51.9,48.0,29.93,South,182,16.5,16.5,87,0.00,,,0.35,TxWx,2013-01-12 00:19:00,
2013-01-11 18:24:00,51.9,48.0,29.93,SSE,159,9.3,10.5,86,0.00,,,0.35,TxWx,2013-01-12 00:24:00,
2013-01-11 18:29:00,51.5,48.0,29.93,South,169,14.1,14.4,86,0.00,,,0.35,TxWx,2013-01-12 00:29:00,
2013-01-11 18:34:00,51.5,47.0,29.93,SSE,148,8.7,9.6,87,0.00,,,0.35,TxWx,2013-01-12 00:34:00,
2013-01-11 18:39:00,51.4,47.0,29.93,SSE,153,10.8,10.8,87,0.00,,,0.35,TxWx,2013-01-12 00:39:00,
2013-01-11 18:44:00,51.4,47.0,29.93,SE,141,10.5,12.6,87,0.00,,,0.35,TxWx,2013-01-12 00:44:00,
2013-01-11 18:50:00,51.4,47.0,29.93,South,172,9.3,10.8,87,0.00,,,0.35,TxWx,2013-01-12 00:50:00,
2013-01-11 18:55:00,51.4,47.0,29.94,SSE,168,9.6,9.6,87,0.00,,,0.35,TxWx,2013-01-12 00:55:00,
2013-01-11 19:00:00,51.7,48.0,29.93,South,179,9.9,9.9,87,0.00,,,0.35,TxWx,2013-01-12 01:00:00,
2013-01-11 19:05:00,52.0,48.0,29.93,South,170,13.8,13.8,87,0.00,,,0.35,TxWx,2013-01-12 01:05:00,
2013-01-11 19:10:00,52.3,48.0,29.93,SSE,159,10.5,10.5,86,0.00,,,0.35,TxWx,2013-01-12 01:10:00,
2013-01-11 19:16:00,52.4,48.0,29.93,SSE,158,10.5,12.6,86,0.00,,,0.35,TxWx,2013-01-12 01:16:00,
2013-01-11 19:21:00,52.4,48.0,29.93,South,178,12.6,14.4,85,0.00,,,0.35,TxWx,2013-01-12 01:21:00,
2013-01-11 19:26:00,52.4,48.0,29.94,South,178,15.9,16.8,85,0.00,,,0.35,TxWx,2013-01-12 01:26:00,
2013-01-11 19:31:00,52.4,48.0,29.94,South,177,20.7,20.7,85,0.00,,,0.35,TxWx,2013-01-12 01:31:00,
2013-01-11 19:36:00,52.4,48.0,29.94,SSE,151,13.5,15.6,85,0.00,,,0.35,TxWx,2013-01-12 01:36:00,
2013-01-11 19:41:00,52.4,47.0,29.94,SSE,160,16.5,17.1,85,0.00,,,0.35,TxWx,2013-01-12 01:41:00,
2013-01-11 19:47:00,52.4,48.0,29.94,SSE,165,12.3,14.4,85,0.00,,,0.35,TxWx,2013-01-12 01:47:00,
2013-01-11 19:52:00,52.3,48.0,29.93,SSE,157,9.9,9.9,85,0.00,,,0.35,TxWx,2013-01-12 01:52:00,
2013-01-11 19:57:00,52.4,48.0,29.93,SSE,166,10.5,10.5,85,0.00,,,0.35,TxWx,2013-01-12 01:57:00,
2013-01-11 20:02:00,52.4,48.0,29.93,SSE,159,12.0,13.2,85,0.00,,,0.35,TxWx,2013-01-12 02:02:00,
2013-01-11 20:07:00,52.4,48.0,29.93,South,170,14.7,18.6,85,0.00,,,0.35,TxWx,2013-01-12 02:07:00,
2013-01-11 20:12:00,52.6,49.0,29.93,South,174,13.8,14.4,85,0.00,,,0.35,TxWx,2013-01-12 02:12:00,
2013-01-11 20:18:00,52.5,48.0,29.93,South,176,21.9,21.9,85,0.00,,,0.35,TxWx,2013-01-12 02:18:00,
2013-01-11 20:23:00,52.7,49.0,29.93,South,175,19.5,19.8,85,0.00,,,0.35,TxWx,2013-01-12 02:23:00,
2013-01-11 20:28:00,52.8,49.0,29.92,SSE,161,13.2,13.2,85,0.00,,,0.35,TxWx,2013-01-12 02:28:00,
2013-01-11 20:33:00,52.6,49.0,29.92,SSE,159,11.7,11.7,85,0.00,,,0.35,TxWx,2013-01-12 02:33:00,
2013-01-11 20:38:00,52.6,49.0,29.92,South,170,18.9,18.9,85,0.00,,,0.35,TxWx,2013-01-12 02:38:00,
2013-01-11 20:44:00,52.8,49.0,29.93,SSE,163,15.6,16.8,86,0.00,,,0.35,TxWx,2013-01-12 02:44:00,
2013-01-11 20:49:00,52.7,49.0,29.93,SSE,162,12.9,13.8,85,0.00,,,0.35,TxWx,2013-01-12 02:49:00,
2013-01-11 20:54:00,52.6,49.0,29.92,South,184,15.0,15.0,85,0.00,,,0.35,TxWx,2013-01-12 02:54:00,
2013-01-11 20:59:00,52.7,49.0,29.92,SSE,161,11.1,12.0,86,0.00,,,0.35,TxWx,2013-01-12 02:59:00,
2013-01-11 21:04:00,52.6,49.0,29.92,South,172,17.1,17.1,86,0.00,,,0.35,TxWx,2013-01-12 03:04:00,
2013-01-11 21:10:00,52.6,49.0,29.92,South,183,16.2,18.0,86,0.00,,,0.35,TxWx,2013-01-12 03:10:00,
2013-01-11 21:15:00,52.7,49.0,29.92,South,177,14.1,18.0,86,0.00,,,0.35,TxWx,2013-01-12 03:15:00,
2013-01-11 21:20:00,52.7,49.0,29.92,South,178,11.4,11.4,86,0.00,,,0.35,TxWx,2013-01-12 03:20:00,
2013-01-11 21:25:00,52.7,49.0,29.92,South,179,10.8,11.4,86,0.00,,,0.35,TxWx,2013-01-12 03:25:00,
2013-01-11 21:30:00,52.8,49.0,29.92,South,181,12.9,14.4,86,0.00,,,0.35,TxWx,2013-01-12 03:30:00,
2013-01-11 21:35:00,52.8,49.0,29.92,South,177,13.8,14.1,85,0.00,,,0.35,TxWx,2013-01-12 03:35:00,
2013-01-11 21:41:00,52.8,49.0,29.92,South,181,21.6,23.7,85,0.00,,,0.35,TxWx,2013-01-12 03:41:00,
2013-01-11 21:46:00,52.7,49.0,29.92,South,188,23.7,23.7,85,0.00,,,0.35,TxWx,2013-01-12 03:46:00,
2013-01-11 21:51:00,52.7,49.0,29.92,South,184,25.2,26.1,85,0.00,,,0.35,TxWx,2013-01-12 03:51:00,
2013-01-11 21:56:00,52.6,49.0,29.92,South,179,20.4,20.4,85,0.00,,,0.35,TxWx,2013-01-12 03:56:00,
2013-01-11 22:01:00,52.7,49.0,29.91,South,186,15.6,17.7,85,0.00,,,0.35,TxWx,2013-01-12 04:01:00,
2013-01-11 22:06:00,52.7,49.0,29.91,South,175,20.7,20.7,85,0.00,,,0.35,TxWx,2013-01-12 04:06:00,
2013-01-11 22:11:00,52.6,49.0,29.91,SSE,163,12.3,12.6,85,0.00,,,0.35,TxWx,2013-01-12 04:11:00,
2013-01-11 22:17:00,52.6,48.0,29.91,SSW,194,14.4,14.7,85,0.00,,,0.35,TxWx,2013-01-12 04:17:00,
2013-01-11 22:22:00,52.6,49.0,29.92,South,170,12.0,13.5,85,0.00,,,0.35,TxWx,2013-01-12 04:22:00,
2013-01-11 22:27:00,52.6,49.0,29.91,South,182,20.7,23.7,85,0.00,,,0.35,TxWx,2013-01-12 04:27:00,
2013-01-11 22:32:00,52.7,49.0,29.92,SSW,192,30.6,30.6,85,0.00,,,0.35,TxWx,2013-01-12 04:32:00,
2013-01-11 22:37:00,52.6,48.0,29.92,South,178,19.8,20.4,85,0.00,,,0.35,TxWx,2013-01-12 04:37:00,
2013-01-11 22:42:00,52.8,48.0,29.92,South,180,21.0,22.2,85,0.00,,,0.35,TxWx,2013-01-12 04:42:00,
2013-01-11 22:47:00,52.8,48.0,29.92,SSW,196,19.2,19.2,85,0.00,,,0.35,TxWx,2013-01-12 04:47:00,
2013-01-11 22:52:00,52.8,48.0,29.92,SSE,162,20.1,20.1,84,0.00,,,0.35,TxWx,2013-01-12 04:52:00,
2013-01-11 22:57:00,52.7,48.0,29.91,South,180,16.8,16.8,84,0.00,,,0.35,TxWx,2013-01-12 04:57:00,
2013-01-11 23:00:00,52.7,48.0,29.91,South,182,15.6,15.6,84,0.00,,,0.35,TxWx,2013-01-12 05:00:00,
2013-01-11 23:03:00,52.7,48.0,29.91,SSW,202,16.5,16.5,84,0.00,,,0.35,TxWx,2013-01-12 05:03:00,
2013-01-11 23:06:00,52.8,48.0,29.91,SSW,192,15.9,18.6,84,0.00,,,0.35,TxWx,2013-01-12 05:06:00,
2013-01-11 23:11:00,52.7,48.0,29.92,South,171,13.8,16.2,84,0.00,,,0.35,TxWx,2013-01-12 05:11:00,
2013-01-11 23:16:00,52.7,48.0,29.91,South,184,19.8,20.4,84,0.00,,,0.35,TxWx,2013-01-12 05:16:00,
2013-01-11 23:22:00,52.6,48.0,29.91,South,181,16.5,16.5,84,0.00,,,0.35,TxWx,2013-01-12 05:22:00,
2013-01-11 23:27:00,52.8,48.0,29.92,SSW,192,19.8,20.1,84,0.00,,,0.35,TxWx,2013-01-12 05:27:00,
2013-01-11 23:32:00,52.8,48.0,29.92,South,179,24.6,24.6,84,0.00,,,0.35,TxWx,2013-01-12 05:32:00,
2013-01-11 23:37:00,52.9,48.0,29.92,SSE,164,15.0,15.6,84,0.00,,,0.35,TxWx,2013-01-12 05:37:00,
2013-01-11 23:43:00,53.0,48.0,29.92,South,174,26.1,30.3,84,0.00,,,0.35,TxWx,2013-01-12 05:43:00,
2013-01-11 23:48:00,52.8,48.0,29.92,SSW,202,20.7,22.8,83,0.00,,,0.35,TxWx,2013-01-12 05:48:00,
2013-01-11 23:53:00,52.9,48.0,29.92,South,187,15.0,15.0,83,0.00,,,0.35,TxWx,2013-01-12 05:53:00,
2013-01-11 23:58:00,52.7,48.0,29.93,SSW,201,17.7,17.7,83,0.00,,,0.35,TxWx,2013-01-12 05:58:00,